sensor_id;sensor_type;location;lat;lon;timestamp;P1;durP1;ratioP1;P2;durP2;ratioP2
60454;SDS011;54989;53.398;6.564;2022-11-20T00:01:16;2.92;;;2.60;;
60454;SDS011;54989;53.398;6.564;2022-11-20T00:03:45;2.80;;;2.60;;
60454;SDS011;54989;53.398;6.564;2022-11-20T00:06:14;2.50;;;2.30;;
60454;SDS011;54989;53.398;6.564;2022-11-20T00:08:42;2.60;;;2.40;;
60454;SDS011;54989;53.398;6.564;2022-11-20T00:11:15;2.40;;;2.20;;
60454;SDS011;54989;53.398;6.564;2022-11-20T00:13:47;2.63;;;2.47;;
60454;SDS011;54989;53.398;6.564;2022-11-20T00:16:16;2.80;;;2.60;;
60454;SDS011;54989;53.398;6.564;2022-11-20T00:18:45;2.63;;;2.42;;
60454;SDS011;54989;53.398;6.564;2022-11-20T00:21:14;2.55;;;2.35;;
60454;SDS011;54989;53.398;6.564;2022-11-20T00:23:42;2.45;;;2.25;;
60454;SDS011;54989;53.398;6.564;2022-11-20T00:26:11;2.75;;;2.55;;
60454;SDS011;54989;53.398;6.564;2022-11-20T00:28:39;2.55;;;2.35;;
60454;SDS011;54989;53.398;6.564;2022-11-20T00:31:11;2.60;;;2.40;;
60454;SDS011;54989;53.398;6.564;2022-11-20T00:33:40;2.60;;;2.40;;
60454;SDS011;54989;53.398;6.564;2022-11-20T00:36:12;2.40;;;2.20;;
60454;SDS011;54989;53.398;6.564;2022-11-20T00:38:41;2.38;;;2.17;;
60454;SDS011;54989;53.398;6.564;2022-11-20T00:41:09;2.65;;;2.45;;
60454;SDS011;54989;53.398;6.564;2022-11-20T00:43:37;2.40;;;2.20;;
60454;SDS011;54989;53.398;6.564;2022-11-20T00:46:07;3.03;;;2.40;;
60454;SDS011;54989;53.398;6.564;2022-11-20T00:48:35;2.85;;;2.65;;
60454;SDS011;54989;53.398;6.564;2022-11-20T00:51:03;2.30;;;2.20;;
60454;SDS011;54989;53.398;6.564;2022-11-20T00:53:31;2.53;;;2.30;;
60454;SDS011;54989;53.398;6.564;2022-11-20T00:55:59;2.60;;;2.40;;
60454;SDS011;54989;53.398;6.564;2022-11-20T00:58:32;2.92;;;2.63;;
60454;SDS011;54989;53.398;6.564;2022-11-20T01:01:00;2.42;;;2.22;;
60454;SDS011;54989;53.398;6.564;2022-11-20T01:03:30;2.45;;;2.25;;
60454;SDS011;54989;53.398;6.564;2022-11-20T01:05:59;2.90;;;2.60;;
60454;SDS011;54989;53.398;6.564;2022-11-20T01:08:31;3.00;;;2.40;;
60454;SDS011;54989;53.398;6.564;2022-11-20T01:11:00;2.75;;;2.55;;
60454;SDS011;54989;53.398;6.564;2022-11-20T01:13:29;3.45;;;2.53;;
60454;SDS011;54989;53.398;6.564;2022-11-20T01:16:08;2.78;;;2.58;;
60454;SDS011;54989;53.398;6.564;2022-11-20T01:18:37;3.13;;;2.83;;
60454;SDS011;54989;53.398;6.564;2022-11-20T01:21:07;2.97;;;2.65;;
60454;SDS011;54989;53.398;6.564;2022-11-20T01:23:36;3.30;;;3.00;;
60454;SDS011;54989;53.398;6.564;2022-11-20T01:26:05;2.60;;;2.40;;
60454;SDS011;54989;53.398;6.564;2022-11-20T01:28:33;3.17;;;2.75;;
60454;SDS011;54989;53.398;6.564;2022-11-20T01:31:01;2.97;;;2.65;;
60454;SDS011;54989;53.398;6.564;2022-11-20T01:33:29;3.33;;;2.80;;
60454;SDS011;54989;53.398;6.564;2022-11-20T01:36:03;3.03;;;2.72;;
60454;SDS011;54989;53.398;6.564;2022-11-20T01:38:31;3.80;;;2.88;;
60454;SDS011;54989;53.398;6.564;2022-11-20T01:40:59;2.65;;;2.40;;
60454;SDS011;54989;53.398;6.564;2022-11-20T01:43:27;3.67;;;2.72;;
60454;SDS011;54989;53.398;6.564;2022-11-20T01:51:06;2.97;;;2.67;;
60454;SDS011;54989;53.398;6.564;2022-11-20T01:53:41;2.70;;;2.50;;
60454;SDS011;54989;53.398;6.564;2022-11-20T01:56:09;2.58;;;2.38;;
60454;SDS011;54989;53.398;6.564;2022-11-20T01:58:40;3.17;;;2.83;;
60454;SDS011;54989;53.398;6.564;2022-11-20T02:01:09;2.80;;;2.60;;
60454;SDS011;54989;53.398;6.564;2022-11-20T02:03:38;2.78;;;2.40;;
60454;SDS011;54989;53.398;6.564;2022-11-20T02:06:10;3.08;;;2.58;;
60454;SDS011;54989;53.398;6.564;2022-11-20T02:08:39;2.90;;;2.60;;
60454;SDS011;54989;53.398;6.564;2022-11-20T02:11:07;3.05;;;2.65;;
60454;SDS011;54989;53.398;6.564;2022-11-20T02:13:35;2.97;;;2.50;;
60454;SDS011;54989;53.398;6.564;2022-11-20T02:16:20;2.97;;;2.53;;
60454;SDS011;54989;53.398;6.564;2022-11-20T02:18:49;3.00;;;2.30;;
60454;SDS011;54989;53.398;6.564;2022-11-20T02:24:04;3.05;;;2.60;;
60454;SDS011;54989;53.398;6.564;2022-11-20T02:26:46;2.72;;;2.53;;
60454;SDS011;54989;53.398;6.564;2022-11-20T02:31:42;2.40;;;2.20;;
60454;SDS011;54989;53.398;6.564;2022-11-20T02:34:10;2.60;;;2.40;;
60454;SDS011;54989;53.398;6.564;2022-11-20T02:36:39;3.13;;;2.50;;
60454;SDS011;54989;53.398;6.564;2022-11-20T02:39:09;2.78;;;2.58;;
60454;SDS011;54989;53.398;6.564;2022-11-20T02:41:39;2.75;;;2.55;;
60454;SDS011;54989;53.398;6.564;2022-11-20T02:44:07;2.63;;;2.40;;
60454;SDS011;54989;53.398;6.564;2022-11-20T02:46:34;2.70;;;2.50;;
60454;SDS011;54989;53.398;6.564;2022-11-20T02:49:03;2.40;;;2.20;;
60454;SDS011;54989;53.398;6.564;2022-11-20T02:51:31;2.95;;;2.30;;
60454;SDS011;54989;53.398;6.564;2022-11-20T02:53:59;2.50;;;2.30;;
60454;SDS011;54989;53.398;6.564;2022-11-20T02:56:27;2.60;;;2.40;;
60454;SDS011;54989;53.398;6.564;2022-11-20T02:58:55;2.35;;;2.15;;
60454;SDS011;54989;53.398;6.564;2022-11-20T03:01:23;2.78;;;2.40;;
60454;SDS011;54989;53.398;6.564;2022-11-20T03:03:50;2.53;;;2.33;;
60454;SDS011;54989;53.398;6.564;2022-11-20T03:06:21;2.37;;;2.20;;
60454;SDS011;54989;53.398;6.564;2022-11-20T03:08:49;2.83;;;2.63;;
60454;SDS011;54989;53.398;6.564;2022-11-20T03:11:17;2.65;;;2.45;;
60454;SDS011;54989;53.398;6.564;2022-11-20T03:13:45;2.47;;;2.28;;
60454;SDS011;54989;53.398;6.564;2022-11-20T03:16:14;2.58;;;2.38;;
60454;SDS011;54989;53.398;6.564;2022-11-20T03:18:42;2.70;;;2.50;;
60454;SDS011;54989;53.398;6.564;2022-11-20T03:21:10;2.70;;;2.50;;
60454;SDS011;54989;53.398;6.564;2022-11-20T03:23:39;2.83;;;2.63;;
60454;SDS011;54989;53.398;6.564;2022-11-20T03:26:13;3.08;;;2.80;;
60454;SDS011;54989;53.398;6.564;2022-11-20T03:28:42;2.70;;;2.50;;
60454;SDS011;54989;53.398;6.564;2022-11-20T03:31:11;2.50;;;2.30;;
60454;SDS011;54989;53.398;6.564;2022-11-20T03:33:40;2.83;;;2.63;;
60454;SDS011;54989;53.398;6.564;2022-11-20T03:36:09;2.55;;;2.35;;
60454;SDS011;54989;53.398;6.564;2022-11-20T03:38:37;3.20;;;2.90;;
60454;SDS011;54989;53.398;6.564;2022-11-20T03:41:07;2.95;;;2.70;;
60454;SDS011;54989;53.398;6.564;2022-11-20T03:43:35;2.60;;;2.40;;
60454;SDS011;54989;53.398;6.564;2022-11-20T03:46:04;2.45;;;2.25;;
60454;SDS011;54989;53.398;6.564;2022-11-20T03:48:31;2.85;;;2.60;;
60454;SDS011;54989;53.398;6.564;2022-11-20T03:51:09;2.60;;;2.40;;
60454;SDS011;54989;53.398;6.564;2022-11-20T03:53:42;2.70;;;2.50;;
60454;SDS011;54989;53.398;6.564;2022-11-20T03:56:11;2.92;;;2.72;;
60454;SDS011;54989;53.398;6.564;2022-11-20T03:58:39;3.22;;;2.92;;
60454;SDS011;54989;53.398;6.564;2022-11-20T04:03:42;3.00;;;2.70;;
60454;SDS011;54989;53.398;6.564;2022-11-20T04:06:17;3.78;;;3.47;;
60454;SDS011;54989;53.398;6.564;2022-11-20T04:08:45;3.45;;;3.15;;
60454;SDS011;54989;53.398;6.564;2022-11-20T04:13:49;3.47;;;3.15;;
60454;SDS011;54989;53.398;6.564;2022-11-20T04:16:17;3.45;;;3.15;;
60454;SDS011;54989;53.398;6.564;2022-11-20T04:18:45;3.50;;;3.20;;
60454;SDS011;54989;53.398;6.564;2022-11-20T04:21:13;3.67;;;3.38;;
60454;SDS011;54989;53.398;6.564;2022-11-20T04:23:41;3.50;;;3.20;;
60454;SDS011;54989;53.398;6.564;2022-11-20T04:26:09;3.28;;;2.97;;
60454;SDS011;54989;53.398;6.564;2022-11-20T04:28:38;3.42;;;3.13;;
60454;SDS011;54989;53.398;6.564;2022-11-20T04:31:07;3.55;;;3.25;;
60454;SDS011;54989;53.398;6.564;2022-11-20T04:33:36;3.80;;;3.50;;
60454;SDS011;54989;53.398;6.564;2022-11-20T04:36:07;3.80;;;3.30;;
60454;SDS011;54989;53.398;6.564;2022-11-20T04:38:35;3.53;;;3.17;;
60454;SDS011;54989;53.398;6.564;2022-11-20T04:41:04;3.97;;;3.42;;
60454;SDS011;54989;53.398;6.564;2022-11-20T04:43:33;3.28;;;2.97;;
60454;SDS011;54989;53.398;6.564;2022-11-20T04:46:01;3.72;;;3.38;;
60454;SDS011;54989;53.398;6.564;2022-11-20T04:48:29;4.18;;;3.55;;
60454;SDS011;54989;53.398;6.564;2022-11-20T04:50:57;3.67;;;3.38;;
60454;SDS011;54989;53.398;6.564;2022-11-20T04:53:25;3.83;;;3.50;;
60454;SDS011;54989;53.398;6.564;2022-11-20T04:55:58;3.50;;;3.20;;
60454;SDS011;54989;53.398;6.564;2022-11-20T04:58:27;3.80;;;3.50;;
60454;SDS011;54989;53.398;6.564;2022-11-20T05:01:04;3.50;;;3.20;;
60454;SDS011;54989;53.398;6.564;2022-11-20T05:03:33;3.63;;;3.33;;
60454;SDS011;54989;53.398;6.564;2022-11-20T05:06:08;2.90;;;2.70;;
60454;SDS011;54989;53.398;6.564;2022-11-20T05:08:36;3.28;;;3.00;;
60454;SDS011;54989;53.398;6.564;2022-11-20T05:11:10;3.50;;;3.17;;
60454;SDS011;54989;53.398;6.564;2022-11-20T05:13:39;3.53;;;3.20;;
60454;SDS011;54989;53.398;6.564;2022-11-20T05:16:08;3.13;;;2.83;;
60454;SDS011;54989;53.398;6.564;2022-11-20T05:18:36;3.47;;;3.17;;
60454;SDS011;54989;53.398;6.564;2022-11-20T05:21:04;2.80;;;2.60;;
60454;SDS011;54989;53.398;6.564;2022-11-20T05:23:33;3.30;;;3.00;;
60454;SDS011;54989;53.398;6.564;2022-11-20T05:26:01;3.28;;;2.97;;
60454;SDS011;54989;53.398;6.564;2022-11-20T05:28:29;2.90;;;2.70;;
60454;SDS011;54989;53.398;6.564;2022-11-20T05:31:04;3.13;;;2.92;;
60454;SDS011;54989;53.398;6.564;2022-11-20T05:33:33;2.90;;;2.70;;
60454;SDS011;54989;53.398;6.564;2022-11-20T05:36:01;3.08;;;2.83;;
60454;SDS011;54989;53.398;6.564;2022-11-20T05:38:29;3.05;;;2.75;;
60454;SDS011;54989;53.398;6.564;2022-11-20T05:41:06;2.72;;;2.53;;
60454;SDS011;54989;53.398;6.564;2022-11-20T05:43:36;2.78;;;2.58;;
60454;SDS011;54989;53.398;6.564;2022-11-20T05:46:04;2.97;;;2.78;;
60454;SDS011;54989;53.398;6.564;2022-11-20T05:48:32;2.95;;;2.75;;
60454;SDS011;54989;53.398;6.564;2022-11-20T05:51:01;3.10;;;2.90;;
60454;SDS011;54989;53.398;6.564;2022-11-20T05:53:29;2.42;;;2.22;;
60454;SDS011;54989;53.398;6.564;2022-11-20T05:55:57;3.00;;;2.80;;
60454;SDS011;54989;53.398;6.564;2022-11-20T05:58:25;3.17;;;2.88;;
60454;SDS011;54989;53.398;6.564;2022-11-20T06:00:54;3.03;;;2.60;;
60454;SDS011;54989;53.398;6.564;2022-11-20T06:03:22;3.10;;;2.80;;
60454;SDS011;54989;53.398;6.564;2022-11-20T06:05:49;2.70;;;2.50;;
60454;SDS011;54989;53.398;6.564;2022-11-20T06:08:17;2.80;;;2.53;;
60454;SDS011;54989;53.398;6.564;2022-11-20T06:10:45;2.88;;;2.67;;
60454;SDS011;54989;53.398;6.564;2022-11-20T06:13:13;2.80;;;2.60;;
60454;SDS011;54989;53.398;6.564;2022-11-20T06:15:40;3.40;;;3.10;;
60454;SDS011;54989;53.398;6.564;2022-11-20T06:18:08;3.00;;;2.80;;
60454;SDS011;54989;53.398;6.564;2022-11-20T06:20:36;3.10;;;2.90;;
60454;SDS011;54989;53.398;6.564;2022-11-20T06:23:07;3.28;;;3.08;;
60454;SDS011;54989;53.398;6.564;2022-11-20T06:25:42;3.20;;;3.00;;
60454;SDS011;54989;53.398;6.564;2022-11-20T06:28:10;2.95;;;2.75;;
60454;SDS011;54989;53.398;6.564;2022-11-20T06:30:38;3.80;;;3.20;;
60454;SDS011;54989;53.398;6.564;2022-11-20T06:33:12;3.15;;;2.90;;
60454;SDS011;54989;53.398;6.564;2022-11-20T06:35:40;3.97;;;3.45;;
60454;SDS011;54989;53.398;6.564;2022-11-20T06:38:08;3.42;;;3.13;;
60454;SDS011;54989;53.398;6.564;2022-11-20T06:40:35;3.13;;;2.83;;
60454;SDS011;54989;53.398;6.564;2022-11-20T06:43:03;3.55;;;3.25;;
60454;SDS011;54989;53.398;6.564;2022-11-20T06:45:31;3.40;;;3.10;;
60454;SDS011;54989;53.398;6.564;2022-11-20T06:47:59;3.10;;;2.90;;
60454;SDS011;54989;53.398;6.564;2022-11-20T06:50:26;3.60;;;3.30;;
60454;SDS011;54989;53.398;6.564;2022-11-20T06:52:54;3.60;;;3.30;;
60454;SDS011;54989;53.398;6.564;2022-11-20T06:55:22;3.13;;;2.90;;
60454;SDS011;54989;53.398;6.564;2022-11-20T06:57:50;2.90;;;2.70;;
60454;SDS011;54989;53.398;6.564;2022-11-20T07:02:49;2.95;;;2.75;;
60454;SDS011;54989;53.398;6.564;2022-11-20T07:05:17;3.10;;;2.90;;
60454;SDS011;54989;53.398;6.564;2022-11-20T07:07:44;3.20;;;2.90;;
60454;SDS011;54989;53.398;6.564;2022-11-20T07:10:12;2.80;;;2.60;;
60454;SDS011;54989;53.398;6.564;2022-11-20T07:12:40;3.15;;;2.88;;
60454;SDS011;54989;53.398;6.564;2022-11-20T07:15:08;3.17;;;2.97;;
60454;SDS011;54989;53.398;6.564;2022-11-20T07:17:36;2.80;;;2.60;;
60454;SDS011;54989;53.398;6.564;2022-11-20T07:20:04;2.88;;;2.65;;
60454;SDS011;54989;53.398;6.564;2022-11-20T07:22:32;3.13;;;2.92;;
60454;SDS011;54989;53.398;6.564;2022-11-20T07:24:59;2.45;;;2.28;;
60454;SDS011;54989;53.398;6.564;2022-11-20T07:27:28;2.80;;;2.60;;
60454;SDS011;54989;53.398;6.564;2022-11-20T07:29:56;3.30;;;2.85;;
60454;SDS011;54989;53.398;6.564;2022-11-20T07:32:24;3.15;;;2.90;;
60454;SDS011;54989;53.398;6.564;2022-11-20T07:34:52;3.83;;;2.85;;
60454;SDS011;54989;53.398;6.564;2022-11-20T07:37:19;4.15;;;3.08;;
60454;SDS011;54989;53.398;6.564;2022-11-20T07:39:47;2.97;;;2.67;;
60454;SDS011;54989;53.398;6.564;2022-11-20T07:42:15;9.40;;;3.03;;
60454;SDS011;54989;53.398;6.564;2022-11-20T07:44:43;2.60;;;2.40;;
60454;SDS011;54989;53.398;6.564;2022-11-20T07:47:10;3.88;;;2.75;;
60454;SDS011;54989;53.398;6.564;2022-11-20T07:49:38;2.83;;;2.42;;
60454;SDS011;54989;53.398;6.564;2022-11-20T07:52:06;3.13;;;2.50;;
60454;SDS011;54989;53.398;6.564;2022-11-20T07:54:34;3.03;;;2.72;;
60454;SDS011;54989;53.398;6.564;2022-11-20T07:57:01;3.00;;;2.75;;
60454;SDS011;54989;53.398;6.564;2022-11-20T07:59:29;2.53;;;2.33;;
60454;SDS011;54989;53.398;6.564;2022-11-20T08:01:57;2.78;;;2.58;;
60454;SDS011;54989;53.398;6.564;2022-11-20T08:04:25;2.58;;;2.38;;
60454;SDS011;54989;53.398;6.564;2022-11-20T08:06:53;2.45;;;2.25;;
60454;SDS011;54989;53.398;6.564;2022-11-20T08:09:21;2.83;;;2.40;;
60454;SDS011;54989;53.398;6.564;2022-11-20T08:11:49;3.35;;;2.55;;
60454;SDS011;54989;53.398;6.564;2022-11-20T08:14:35;3.10;;;2.80;;
60454;SDS011;54989;53.398;6.564;2022-11-20T08:17:03;3.15;;;2.90;;
60454;SDS011;54989;53.398;6.564;2022-11-20T08:19:31;4.72;;;2.90;;
60454;SDS011;54989;53.398;6.564;2022-11-20T08:21:59;4.53;;;2.60;;
60454;SDS011;54989;53.398;6.564;2022-11-20T08:24:27;3.80;;;2.53;;
60454;SDS011;54989;53.398;6.564;2022-11-20T08:26:56;2.70;;;2.50;;
60454;SDS011;54989;53.398;6.564;2022-11-20T08:29:28;3.30;;;2.40;;
60454;SDS011;54989;53.398;6.564;2022-11-20T08:31:56;3.33;;;2.40;;
60454;SDS011;54989;53.398;6.564;2022-11-20T08:34:24;2.95;;;2.38;;
60454;SDS011;54989;53.398;6.564;2022-11-20T08:36:52;4.63;;;2.28;;
60454;SDS011;54989;53.398;6.564;2022-11-20T08:39:20;3.03;;;2.20;;
60454;SDS011;54989;53.398;6.564;2022-11-20T08:41:47;3.92;;;2.40;;
60454;SDS011;54989;53.398;6.564;2022-11-20T08:44:15;2.70;;;1.95;;
60454;SDS011;54989;53.398;6.564;2022-11-20T08:46:44;2.20;;;2.00;;
60454;SDS011;54989;53.398;6.564;2022-11-20T08:49:13;2.63;;;2.03;;
60454;SDS011;54989;53.398;6.564;2022-11-20T08:51:41;2.08;;;1.75;;
60454;SDS011;54989;53.398;6.564;2022-11-20T08:54:09;2.42;;;2.00;;
60454;SDS011;54989;53.398;6.564;2022-11-20T08:56:37;4.20;;;1.90;;
60454;SDS011;54989;53.398;6.564;2022-11-20T08:59:05;5.95;;;2.10;;
60454;SDS011;54989;53.398;6.564;2022-11-20T09:01:53;2.15;;;1.98;;
60454;SDS011;54989;53.398;6.564;2022-11-20T09:04:21;3.78;;;1.70;;
60454;SDS011;54989;53.398;6.564;2022-11-20T09:06:49;1.60;;;1.50;;
60454;SDS011;54989;53.398;6.564;2022-11-20T09:09:17;2.00;;;1.80;;
60454;SDS011;54989;53.398;6.564;2022-11-20T09:11:46;3.65;;;1.80;;
60454;SDS011;54989;53.398;6.564;2022-11-20T09:14:14;5.38;;;1.90;;
60454;SDS011;54989;53.398;6.564;2022-11-20T09:16:41;3.08;;;1.55;;
60454;SDS011;54989;53.398;6.564;2022-11-20T09:19:09;1.90;;;1.70;;
60454;SDS011;54989;53.398;6.564;2022-11-20T09:21:57;2.45;;;1.73;;
60454;SDS011;54989;53.398;6.564;2022-11-20T09:24:26;1.80;;;1.70;;
60454;SDS011;54989;53.398;6.564;2022-11-20T09:26:54;2.10;;;1.80;;
60454;SDS011;54989;53.398;6.564;2022-11-20T09:29:22;2.28;;;1.80;;
60454;SDS011;54989;53.398;6.564;2022-11-20T09:31:50;2.00;;;1.80;;
60454;SDS011;54989;53.398;6.564;2022-11-20T09:34:18;1.48;;;1.38;;
60454;SDS011;54989;53.398;6.564;2022-11-20T09:36:46;2.00;;;1.70;;
60454;SDS011;54989;53.398;6.564;2022-11-20T09:39:14;2.60;;;1.92;;
60454;SDS011;54989;53.398;6.564;2022-11-20T09:52:15;2.78;;;2.20;;
60454;SDS011;54989;53.398;6.564;2022-11-20T09:54:44;2.88;;;2.17;;
60454;SDS011;54989;53.398;6.564;2022-11-20T09:57:12;3.13;;;2.22;;
60454;SDS011;54989;53.398;6.564;2022-11-20T09:59:42;2.50;;;2.30;;
60454;SDS011;54989;53.398;6.564;2022-11-20T10:09:59;10.57;;;2.22;;
60454;SDS011;54989;53.398;6.564;2022-11-20T10:15:04;3.75;;;2.22;;
60454;SDS011;54989;53.398;6.564;2022-11-20T10:17:41;5.35;;;2.05;;
60454;SDS011;54989;53.398;6.564;2022-11-20T10:23:11;6.47;;;2.17;;
60454;SDS011;54989;53.398;6.564;2022-11-20T10:30:53;2.95;;;2.20;;
60454;SDS011;54989;53.398;6.564;2022-11-20T10:33:23;2.90;;;2.38;;
60454;SDS011;54989;53.398;6.564;2022-11-20T10:36:14;2.47;;;1.80;;
60454;SDS011;54989;53.398;6.564;2022-11-20T10:38:45;2.75;;;2.08;;
60454;SDS011;54989;53.398;6.564;2022-11-20T10:41:17;2.03;;;1.88;;
60454;SDS011;54989;53.398;6.564;2022-11-20T10:46:48;3.72;;;2.03;;
60454;SDS011;54989;53.398;6.564;2022-11-20T10:49:16;2.30;;;2.10;;
60454;SDS011;54989;53.398;6.564;2022-11-20T10:54:32;3.10;;;2.20;;
60454;SDS011;54989;53.398;6.564;2022-11-20T10:57:07;2.00;;;1.90;;
60454;SDS011;54989;53.398;6.564;2022-11-20T11:02:14;2.22;;;2.03;;
60454;SDS011;54989;53.398;6.564;2022-11-20T11:04:46;2.60;;;1.90;;
60454;SDS011;54989;53.398;6.564;2022-11-20T11:07:21;2.35;;;2.15;;
60454;SDS011;54989;53.398;6.564;2022-11-20T11:09:52;3.72;;;2.33;;
60454;SDS011;54989;53.398;6.564;2022-11-20T11:12:21;3.22;;;2.30;;
60454;SDS011;54989;53.398;6.564;2022-11-20T11:14:53;3.53;;;2.38;;
60454;SDS011;54989;53.398;6.564;2022-11-20T11:20:02;2.88;;;2.58;;
60454;SDS011;54989;53.398;6.564;2022-11-20T11:22:31;3.28;;;2.53;;
60454;SDS011;54989;53.398;6.564;2022-11-20T11:24:59;2.92;;;2.50;;
60454;SDS011;54989;53.398;6.564;2022-11-20T11:27:27;3.00;;;2.80;;
60454;SDS011;54989;53.398;6.564;2022-11-20T11:30:03;3.72;;;2.65;;
60454;SDS011;54989;53.398;6.564;2022-11-20T11:32:39;3.72;;;2.40;;
60454;SDS011;54989;53.398;6.564;2022-11-20T11:35:18;3.60;;;2.45;;
60454;SDS011;54989;53.398;6.564;2022-11-20T11:37:46;2.67;;;2.47;;
60454;SDS011;54989;53.398;6.564;2022-11-20T11:40:15;2.53;;;2.33;;
60454;SDS011;54989;53.398;6.564;2022-11-20T11:42:59;3.13;;;2.40;;
60454;SDS011;54989;53.398;6.564;2022-11-20T11:45:28;2.75;;;2.13;;
60454;SDS011;54989;53.398;6.564;2022-11-20T11:47:57;2.50;;;2.17;;
60454;SDS011;54989;53.398;6.564;2022-11-20T11:50:26;2.67;;;2.40;;
60454;SDS011;54989;53.398;6.564;2022-11-20T11:53:03;2.38;;;2.17;;
60454;SDS011;54989;53.398;6.564;2022-11-20T11:55:34;2.85;;;2.08;;
60454;SDS011;54989;53.398;6.564;2022-11-20T12:01:02;2.50;;;2.30;;
60454;SDS011;54989;53.398;6.564;2022-11-20T12:03:35;2.05;;;1.95;;
60454;SDS011;54989;53.398;6.564;2022-11-20T12:06:13;2.58;;;2.38;;
60454;SDS011;54989;53.398;6.564;2022-11-20T12:11:37;2.20;;;2.00;;
60454;SDS011;54989;53.398;6.564;2022-11-20T12:14:42;2.45;;;2.22;;
60454;SDS011;54989;53.398;6.564;2022-11-20T12:17:01;2.30;;;1.83;;
60454;SDS011;54989;53.398;6.564;2022-11-20T12:19:30;2.20;;;2.00;;
60454;SDS011;54989;53.398;6.564;2022-11-20T12:32:23;2.20;;;2.10;;
60454;SDS011;54989;53.398;6.564;2022-11-20T12:35:10;2.50;;;2.30;;
60454;SDS011;54989;53.398;6.564;2022-11-20T12:53:49;2.05;;;1.90;;
60454;SDS011;54989;53.398;6.564;2022-11-20T13:04:12;1.95;;;1.85;;
60454;SDS011;54989;53.398;6.564;2022-11-20T13:06:44;2.25;;;2.05;;
60454;SDS011;54989;53.398;6.564;2022-11-20T13:09:13;2.30;;;2.10;;
60454;SDS011;54989;53.398;6.564;2022-11-20T13:11:44;2.17;;;2.00;;
60454;SDS011;54989;53.398;6.564;2022-11-20T13:14:18;2.17;;;1.98;;
60454;SDS011;54989;53.398;6.564;2022-11-20T13:19:19;2.40;;;2.20;;
60454;SDS011;54989;53.398;6.564;2022-11-20T13:21:48;2.47;;;2.13;;
60454;SDS011;54989;53.398;6.564;2022-11-20T13:29:29;1.95;;;1.80;;
60454;SDS011;54989;53.398;6.564;2022-11-20T13:35:02;2.17;;;1.98;;
60454;SDS011;54989;53.398;6.564;2022-11-20T13:37:34;2.03;;;1.85;;
60454;SDS011;54989;53.398;6.564;2022-11-20T13:42:37;2.30;;;1.83;;
60454;SDS011;54989;53.398;6.564;2022-11-20T13:45:10;2.15;;;1.95;;
60454;SDS011;54989;53.398;6.564;2022-11-20T13:47:46;2.55;;;1.70;;
60454;SDS011;54989;53.398;6.564;2022-11-20T13:50:14;1.83;;;1.73;;
60454;SDS011;54989;53.398;6.564;2022-11-20T13:57:50;1.85;;;1.75;;
60454;SDS011;54989;53.398;6.564;2022-11-20T14:00:22;1.80;;;1.70;;
60454;SDS011;54989;53.398;6.564;2022-11-20T14:03:01;1.85;;;1.75;;
60454;SDS011;54989;53.398;6.564;2022-11-20T14:05:31;1.75;;;1.63;;
60454;SDS011;54989;53.398;6.564;2022-11-20T14:08:05;2.33;;;1.80;;
60454;SDS011;54989;53.398;6.564;2022-11-20T14:10:34;1.95;;;1.85;;
60454;SDS011;54989;53.398;6.564;2022-11-20T14:13:18;1.80;;;1.70;;
60454;SDS011;54989;53.398;6.564;2022-11-20T14:18:15;1.92;;;1.70;;
60454;SDS011;54989;53.398;6.564;2022-11-20T14:20:46;1.98;;;1.67;;
60454;SDS011;54989;53.398;6.564;2022-11-20T14:23:23;1.60;;;1.50;;
60454;SDS011;54989;53.398;6.564;2022-11-20T14:25:55;1.80;;;1.70;;
60454;SDS011;54989;53.398;6.564;2022-11-20T14:28:30;1.90;;;1.80;;
60454;SDS011;54989;53.398;6.564;2022-11-20T14:30:58;1.80;;;1.70;;
60454;SDS011;54989;53.398;6.564;2022-11-20T14:33:26;2.45;;;1.67;;
60454;SDS011;54989;53.398;6.564;2022-11-20T14:35:55;2.15;;;1.98;;
60454;SDS011;54989;53.398;6.564;2022-11-20T14:38:25;1.70;;;1.60;;
60454;SDS011;54989;53.398;6.564;2022-11-20T14:40:53;2.00;;;1.90;;
60454;SDS011;54989;53.398;6.564;2022-11-20T14:43:25;1.65;;;1.55;;
60454;SDS011;54989;53.398;6.564;2022-11-20T14:45:58;1.70;;;1.60;;
60454;SDS011;54989;53.398;6.564;2022-11-20T14:48:45;2.50;;;1.70;;
60454;SDS011;54989;53.398;6.564;2022-11-20T14:51:31;1.55;;;1.45;;
60454;SDS011;54989;53.398;6.564;2022-11-20T14:54:14;1.58;;;1.48;;
60454;SDS011;54989;53.398;6.564;2022-11-20T14:57:01;1.70;;;1.60;;
60454;SDS011;54989;53.398;6.564;2022-11-20T14:59:31;1.85;;;1.75;;
60454;SDS011;54989;53.398;6.564;2022-11-20T15:02:06;1.95;;;1.80;;
60454;SDS011;54989;53.398;6.564;2022-11-20T15:04:46;2.75;;;1.75;;
60454;SDS011;54989;53.398;6.564;2022-11-20T15:07:28;1.73;;;1.63;;
60454;SDS011;54989;53.398;6.564;2022-11-20T15:09:59;2.20;;;1.50;;
60454;SDS011;54989;53.398;6.564;2022-11-20T15:12:28;1.70;;;1.60;;
60454;SDS011;54989;53.398;6.564;2022-11-20T15:14:56;2.10;;;1.60;;
60454;SDS011;54989;53.398;6.564;2022-11-20T15:17:24;2.33;;;1.63;;
60454;SDS011;54989;53.398;6.564;2022-11-20T15:19:52;1.77;;;1.50;;
60454;SDS011;54989;53.398;6.564;2022-11-20T15:22:22;1.60;;;1.50;;
60454;SDS011;54989;53.398;6.564;2022-11-20T15:24:49;1.70;;;1.50;;
60454;SDS011;54989;53.398;6.564;2022-11-20T15:27:17;1.90;;;1.60;;
60454;SDS011;54989;53.398;6.564;2022-11-20T15:29:45;1.98;;;1.50;;
60454;SDS011;54989;53.398;6.564;2022-11-20T15:32:13;1.60;;;1.50;;
60454;SDS011;54989;53.398;6.564;2022-11-20T15:34:41;1.52;;;1.42;;
60454;SDS011;54989;53.398;6.564;2022-11-20T15:37:08;2.47;;;1.80;;
60454;SDS011;54989;53.398;6.564;2022-11-20T15:39:36;2.08;;;1.60;;
60454;SDS011;54989;53.398;6.564;2022-11-20T15:42:04;1.98;;;1.77;;
60454;SDS011;54989;53.398;6.564;2022-11-20T15:44:32;2.20;;;2.00;;
60454;SDS011;54989;53.398;6.564;2022-11-20T15:47:00;3.38;;;2.40;;
60454;SDS011;54989;53.398;6.564;2022-11-20T15:49:27;2.65;;;2.00;;
60454;SDS011;54989;53.398;6.564;2022-11-20T15:51:55;3.60;;;1.90;;
60454;SDS011;54989;53.398;6.564;2022-11-20T15:54:23;1.90;;;1.80;;
60454;SDS011;54989;53.398;6.564;2022-11-20T15:56:52;3.53;;;2.10;;
60454;SDS011;54989;53.398;6.564;2022-11-20T15:59:20;4.45;;;2.03;;
60454;SDS011;54989;53.398;6.564;2022-11-20T16:01:47;2.85;;;2.10;;
60454;SDS011;54989;53.398;6.564;2022-11-20T16:04:16;2.55;;;2.35;;
60454;SDS011;54989;53.398;6.564;2022-11-20T16:06:45;3.20;;;2.15;;
60454;SDS011;54989;53.398;6.564;2022-11-20T16:09:12;3.35;;;3.00;;
60454;SDS011;54989;53.398;6.564;2022-11-20T16:11:40;6.85;;;3.03;;
60454;SDS011;54989;53.398;6.564;2022-11-20T16:14:09;5.57;;;3.78;;
60454;SDS011;54989;53.398;6.564;2022-11-20T16:16:56;4.82;;;3.92;;
60454;SDS011;54989;53.398;6.564;2022-11-20T16:19:23;5.65;;;4.20;;
60454;SDS011;54989;53.398;6.564;2022-11-20T16:21:51;5.95;;;4.15;;
60454;SDS011;54989;53.398;6.564;2022-11-20T16:24:25;6.32;;;4.65;;
60454;SDS011;54989;53.398;6.564;2022-11-20T16:26:53;6.15;;;4.20;;
60454;SDS011;54989;53.398;6.564;2022-11-20T16:29:21;6.88;;;4.43;;
60454;SDS011;54989;53.398;6.564;2022-11-20T16:31:49;7.82;;;5.00;;
60454;SDS011;54989;53.398;6.564;2022-11-20T16:34:16;7.65;;;4.50;;
60454;SDS011;54989;53.398;6.564;2022-11-20T16:36:45;8.95;;;4.80;;
60454;SDS011;54989;53.398;6.564;2022-11-20T16:39:13;8.13;;;4.65;;
60454;SDS011;54989;53.398;6.564;2022-11-20T16:41:48;7.75;;;4.85;;
60454;SDS011;54989;53.398;6.564;2022-11-20T16:44:16;7.75;;;4.97;;
60454;SDS011;54989;53.398;6.564;2022-11-20T16:46:44;7.82;;;4.63;;
60454;SDS011;54989;53.398;6.564;2022-11-20T16:49:12;7.63;;;4.47;;
60454;SDS011;54989;53.398;6.564;2022-11-20T16:51:41;8.45;;;4.47;;
60454;SDS011;54989;53.398;6.564;2022-11-20T16:54:09;7.75;;;4.70;;
60454;SDS011;54989;53.398;6.564;2022-11-20T16:56:47;6.45;;;4.43;;
60454;SDS011;54989;53.398;6.564;2022-11-20T16:59:16;6.05;;;4.32;;
60454;SDS011;54989;53.398;6.564;2022-11-20T17:01:44;7.43;;;4.70;;
60454;SDS011;54989;53.398;6.564;2022-11-20T17:04:12;5.90;;;4.30;;